createdAt,value
2017-06-12T00:00:07.990Z,998.23
2017-06-12T00:01:18.035Z,998.2
2017-06-12T00:02:28.392Z,998.21
2017-06-12T00:03:38.407Z,998.19
2017-06-12T00:04:49.058Z,998.13
2017-06-12T00:05:59.404Z,998.12
2017-06-12T00:07:09.763Z,998.09
2017-06-12T00:08:20.113Z,998.05
2017-06-12T00:09:30.470Z,998.06
2017-06-12T00:10:40.857Z,998.08
2017-06-12T00:11:50.877Z,998.07
2017-06-12T00:13:01.217Z,998.01
2017-06-12T00:14:11.253Z,998.03
2017-06-12T00:15:21.591Z,998
2017-06-12T00:16:31.942Z,997.97
2017-06-12T00:17:42.294Z,997.94
2017-06-12T00:18:52.341Z,997.9
2017-06-12T00:20:02.378Z,997.93
2017-06-12T00:21:12.404Z,997.92
2017-06-12T00:22:22.810Z,997.94
2017-06-12T00:23:32.844Z,997.94
2017-06-12T00:24:43.201Z,997.88
2017-06-12T00:25:53.538Z,997.92
2017-06-12T00:27:03.885Z,997.87
2017-06-12T00:28:14.258Z,997.83
2017-06-12T00:29:24.605Z,997.78
2017-06-12T00:30:34.650Z,997.75
2017-06-12T00:31:44.680Z,997.74
2017-06-12T00:32:55.036Z,997.75
2017-06-12T00:34:05.433Z,997.71
2017-06-12T00:35:15.825Z,997.71
2017-06-12T00:36:26.163Z,997.7
2017-06-12T00:37:36.509Z,997.67
2017-06-12T00:38:46.850Z,997.67
2017-06-12T00:39:56.872Z,997.66
2017-06-12T00:41:07.208Z,997.67
2017-06-12T00:42:17.624Z,997.65
2017-06-12T00:43:27.970Z,997.67
2017-06-12T00:44:38.318Z,997.65
2017-06-12T00:45:48.405Z,997.72
2017-06-12T00:46:58.119Z,997.67
2017-06-12T00:48:08.476Z,997.68
2017-06-12T00:49:18.830Z,997.69
2017-06-12T00:50:28.912Z,997.7
2017-06-12T00:51:38.999Z,997.72
2017-06-12T00:52:49.338Z,997.68
2017-06-12T00:53:58.757Z,997.69
2017-06-12T00:55:08.799Z,997.65
2017-06-12T00:56:18.817Z,997.6
2017-06-12T00:57:29.158Z,997.6
2017-06-12T00:58:39.500Z,997.64
2017-06-12T00:59:49.849Z,997.64
2017-06-12T01:01:00.203Z,997.69
2017-06-12T01:02:10.240Z,997.76
2017-06-12T01:03:20.272Z,997.77
2017-06-12T01:04:30.316Z,997.78
2017-06-12T01:05:40.672Z,997.77
2017-06-12T01:06:50.399Z,997.73
2017-06-12T01:08:00.764Z,997.69
2017-06-12T01:09:11.126Z,997.67
2017-06-12T01:10:21.475Z,997.66
2017-06-12T01:11:31.830Z,997.64
2017-06-12T01:12:42.163Z,997.64
2017-06-12T01:13:52.204Z,997.63
2017-06-12T01:15:02.549Z,997.65
2017-06-12T01:16:12.266Z,997.65
2017-06-12T01:17:22.302Z,997.6
2017-06-12T01:18:32.651Z,997.59
2017-06-12T01:19:42.675Z,997.6
2017-06-12T01:20:52.464Z,997.52
2017-06-12T01:22:02.800Z,997.52
2017-06-12T01:23:12.846Z,997.47
2017-06-12T01:24:23.185Z,997.48
2017-06-12T01:25:33.221Z,997.42
2017-06-12T01:26:43.619Z,997.43
2017-06-12T01:27:53.965Z,997.46
2017-06-12T01:29:04.296Z,997.47
2017-06-12T01:30:14.662Z,997.47
2017-06-12T01:31:24.999Z,997.47
2017-06-12T01:32:35.346Z,997.49
2017-06-12T01:33:45.684Z,997.44
2017-06-12T01:34:56.039Z,997.43
2017-06-12T01:36:06.076Z,997.39
2017-06-12T01:37:16.419Z,997.38
2017-06-12T01:38:26.763Z,997.34
2017-06-12T01:39:36.794Z,997.32
2017-06-12T01:40:47.139Z,997.3
2017-06-12T01:41:56.869Z,997.24
2017-06-12T01:43:07.228Z,997.22
2017-06-12T01:44:16.994Z,997.2
2017-06-12T01:45:27.340Z,997.15
2017-06-12T01:46:37.907Z,997.1
2017-06-12T01:47:48.255Z,997.02
2017-06-12T01:48:58.281Z,996.98
2017-06-12T01:50:08.304Z,996.95
2017-06-12T01:51:18.641Z,996.94
2017-06-12T01:52:28.672Z,996.91
2017-06-12T01:53:38.699Z,996.93
2017-06-12T01:54:49.049Z,996.89
2017-06-12T01:55:59.121Z,996.9
2017-06-12T01:57:09.145Z,996.95
2017-06-12T01:58:19.176Z,996.96
2017-06-12T01:59:29.533Z,996.98
2017-06-12T02:00:39.568Z,996.99
2017-06-12T02:01:49.962Z,997.01
2017-06-12T02:03:00.353Z,997.01
2017-06-12T02:04:10.703Z,997.01
2017-06-12T02:05:20.727Z,997.04
2017-06-12T02:06:30.455Z,997.09
2017-06-12T02:07:40.789Z,997.15
2017-06-12T02:08:51.120Z,997.18
2017-06-12T02:10:01.511Z,997.18
2017-06-12T02:11:11.564Z,997.21
2017-06-12T02:12:21.593Z,997.19
2017-06-12T02:13:31.680Z,997.14
2017-06-12T02:14:42.032Z,997.14
2017-06-12T02:15:52.379Z,997.13
2017-06-12T02:17:02.734Z,997.07
2017-06-12T02:18:12.762Z,996.98
2017-06-12T02:19:22.846Z,996.94
2017-06-12T02:20:33.209Z,996.88
2017-06-12T02:21:43.556Z,996.8
2017-06-12T02:22:53.914Z,996.79
2017-06-12T02:24:03.629Z,996.72
2017-06-12T02:25:13.659Z,996.77
2017-06-12T02:26:24.003Z,996.79
2017-06-12T02:27:34.351Z,996.77
2017-06-12T02:28:44.391Z,996.77
2017-06-12T02:29:54.747Z,996.8
2017-06-12T02:31:05.145Z,996.8
2017-06-12T02:32:15.497Z,996.77
2017-06-12T02:33:25.220Z,996.81
2017-06-12T02:34:35.614Z,996.78
2017-06-12T02:35:45.027Z,996.75
2017-06-12T02:36:55.116Z,996.72
2017-06-12T02:38:05.148Z,996.72
2017-06-12T02:39:15.494Z,996.74
2017-06-12T02:40:25.523Z,996.68
2017-06-12T02:41:35.861Z,996.65
2017-06-12T02:42:45.894Z,996.64
2017-06-12T02:43:56.233Z,996.63
2017-06-12T02:45:06.577Z,996.63
2017-06-12T02:46:16.938Z,996.57
2017-06-12T02:47:27.278Z,996.55
2017-06-12T02:48:37.635Z,996.48
2017-06-12T02:49:48.010Z,996.45
2017-06-12T02:50:58.341Z,996.39
2017-06-12T02:52:08.672Z,996.42
2017-06-12T02:53:19.004Z,996.4
2017-06-12T02:54:28.761Z,996.48
2017-06-12T02:55:39.123Z,996.5
2017-06-12T02:56:49.464Z,996.62
2017-06-12T02:57:59.817Z,996.69
2017-06-12T02:59:09.846Z,996.75
2017-06-12T03:00:20.217Z,996.85
2017-06-12T03:01:30.255Z,996.85
2017-06-12T03:32:56.184Z,996.3
2017-06-12T03:34:05.903Z,996.37
2017-06-12T03:35:16.233Z,996.39
2017-06-12T03:36:26.568Z,996.42
2017-06-12T03:37:36.939Z,996.37
2017-06-12T03:38:47.379Z,996.34
2017-06-12T03:39:57.726Z,996.3
2017-06-12T03:41:08.050Z,996.3
2017-06-12T03:42:18.392Z,996.23
2017-06-12T03:43:28.745Z,996.18
2017-06-12T03:44:39.077Z,996.15
2017-06-12T03:45:49.424Z,996.09
2017-06-12T03:46:59.496Z,996.08
2017-06-12T03:48:09.838Z,996.12
2017-06-12T03:49:19.867Z,996.18
2017-06-12T03:50:30.270Z,996.25
2017-06-12T03:51:40.307Z,996.24
2017-06-12T03:52:50.654Z,996.23
2017-06-12T03:54:00.997Z,996.17
2017-06-12T03:55:11.382Z,996.15
2017-06-12T03:56:21.738Z,996.08
2017-06-12T03:57:32.086Z,996.06
2017-06-12T03:58:42.119Z,996.07
2017-06-12T03:59:52.459Z,996.08
2017-06-12T04:01:02.490Z,996.13
2017-06-12T04:02:12.523Z,996.17
2017-06-12T04:03:22.555Z,996.25
2017-06-12T04:04:32.908Z,996.28
2017-06-12T04:05:43.257Z,996.35
2017-06-12T04:06:53.607Z,996.31
2017-06-12T04:08:03.641Z,996.35
2017-06-12T04:09:13.988Z,996.43
2017-06-12T04:10:24.338Z,996.47
2017-06-12T04:11:34.400Z,996.56
2017-06-12T04:12:44.743Z,996.62
2017-06-12T04:13:55.127Z,996.75
2017-06-12T04:15:05.472Z,996.78
2017-06-12T04:16:15.820Z,996.83
2017-06-12T04:17:25.856Z,996.82
2017-06-12T04:18:35.909Z,996.77
2017-06-12T04:19:46.306Z,996.71
2017-06-12T04:20:56.343Z,996.75
2017-06-12T04:22:06.398Z,996.72
2017-06-12T04:23:16.446Z,996.75
2017-06-12T04:24:26.802Z,996.74
2017-06-12T04:25:37.219Z,996.73
2017-06-12T04:26:47.245Z,996.71
2017-06-12T04:27:56.979Z,996.63
2017-06-12T04:29:07.326Z,996.59
2017-06-12T04:30:17.357Z,996.6
2017-06-12T04:31:27.387Z,996.62
2017-06-12T04:32:37.421Z,996.62
2017-06-12T04:33:47.759Z,996.65
2017-06-12T04:34:58.118Z,996.74
2017-06-12T04:36:08.158Z,996.74
2017-06-12T04:37:18.256Z,996.73
2017-06-12T04:38:28.297Z,996.73
2017-06-12T04:39:38.646Z,996.74
2017-06-12T04:40:48.995Z,996.72
2017-06-12T04:41:59.342Z,996.67
2017-06-12T04:43:09.437Z,996.59
2017-06-12T04:44:19.788Z,996.55
2017-06-12T04:45:30.133Z,996.53
2017-06-12T04:46:40.205Z,996.53
2017-06-12T04:47:50.242Z,996.52
2017-06-12T04:49:00.278Z,996.51
2017-06-12T04:50:09.996Z,996.47
2017-06-12T04:51:20.341Z,996.37
2017-06-12T04:52:30.692Z,996.36
2017-06-12T04:53:41.057Z,996.31
2017-06-12T04:54:51.453Z,996.27
2017-06-12T04:56:01.816Z,996.29
2017-06-12T04:57:12.375Z,996.3
2017-06-12T04:58:22.409Z,996.25
2017-06-12T04:59:32.434Z,996.25
2017-06-12T05:00:42.466Z,996.24
2017-06-12T05:01:52.806Z,996.23
2017-06-12T05:03:02.894Z,996.25
2017-06-12T05:04:13.248Z,996.25
2017-06-12T05:05:23.593Z,996.2
2017-06-12T05:06:33.980Z,996.18
2017-06-12T05:07:44.002Z,996.19
2017-06-12T05:08:54.343Z,996.22
2017-06-12T05:10:04.709Z,996.26
2017-06-12T05:11:14.746Z,996.31
2017-06-12T05:12:25.135Z,996.4
2017-06-12T05:13:35.477Z,996.41
2017-06-12T05:14:45.832Z,996.42
2017-06-12T05:15:55.880Z,996.48
2017-06-12T05:17:06.228Z,996.42
2017-06-12T05:18:16.731Z,996.43
2017-06-12T05:19:27.100Z,996.59
2017-06-12T05:20:37.457Z,996.61
2017-06-12T05:21:47.802Z,996.82
2017-06-12T05:22:58.149Z,996.76
2017-06-12T05:24:08.516Z,996.53
2017-06-12T05:25:18.540Z,996.5
2017-06-12T05:26:28.890Z,996.36
2017-06-12T05:27:38.916Z,996.41
2017-06-12T05:28:49.269Z,996.36
2017-06-12T05:29:59.605Z,996.37
2017-06-12T05:31:09.669Z,996.67
2017-06-12T05:32:20.028Z,996.94
2017-06-12T05:33:30.366Z,996.92
2017-06-12T05:34:40.714Z,996.93
2017-06-12T05:35:51.067Z,996.96
2017-06-12T05:37:01.422Z,996.89
2017-06-12T05:38:11.458Z,996.81
2017-06-12T05:39:21.810Z,997.1
2017-06-12T05:40:32.173Z,997.14
2017-06-12T05:41:42.260Z,997.01
2017-06-12T05:42:52.627Z,996.79
2017-06-12T05:44:02.976Z,997.18
2017-06-12T05:45:13.333Z,996.98
2017-06-12T05:46:23.704Z,996.81
2017-06-12T05:47:34.264Z,996.8
2017-06-12T05:48:44.321Z,997.11
2017-06-12T05:49:54.350Z,996.87
2017-06-12T05:51:04.704Z,996.85
2017-06-12T05:52:15.049Z,996.87
2017-06-12T05:53:25.393Z,997.19
2017-06-12T05:54:35.759Z,997.21
2017-06-12T05:55:46.104Z,997.01
2017-06-12T05:56:56.137Z,996.95
2017-06-12T05:58:06.495Z,996.79
2017-06-12T05:59:16.885Z,996.95
2017-06-12T06:00:26.616Z,996.63
2017-06-12T06:01:36.658Z,996.66
2017-06-12T06:02:46.998Z,996.69
2017-06-12T06:03:57.402Z,996.7
2017-06-12T06:05:07.804Z,996.63
2017-06-12T06:06:18.158Z,996.66
2017-06-12T06:07:28.514Z,996.73
2017-06-12T06:08:38.859Z,996.57
2017-06-12T06:09:49.202Z,996.56
2017-06-12T06:10:59.612Z,996.61
2017-06-12T06:12:09.969Z,996.49
2017-06-12T06:13:20.005Z,996.43
2017-06-12T06:14:30.345Z,996.4
2017-06-12T06:15:40.696Z,996.38
2017-06-12T06:16:51.088Z,996.4
2017-06-12T06:18:01.125Z,996.38
2017-06-12T06:19:11.183Z,996.4
2017-06-12T06:20:21.543Z,996.48
2017-06-12T06:21:31.889Z,996.48
2017-06-12T06:22:42.235Z,996.47
2017-06-12T06:23:52.282Z,996.51
2017-06-12T06:25:02.630Z,996.51
2017-06-12T06:26:12.680Z,996.53
2017-06-12T06:27:23.019Z,996.52
2017-06-12T06:28:33.425Z,996.59
2017-06-12T06:29:43.800Z,996.61
2017-06-12T06:30:54.151Z,996.63
2017-06-12T06:32:04.503Z,996.94
2017-06-12T06:33:14.868Z,996.68
2017-06-12T06:34:25.271Z,996.82
2017-06-12T06:35:35.624Z,996.75
2017-06-12T06:36:45.983Z,996.96
2017-06-12T06:37:55.699Z,996.96
2017-06-12T06:39:05.745Z,996.96
2017-06-12T06:40:16.077Z,996.93
2017-06-12T06:41:26.104Z,996.9
2017-06-12T06:42:36.462Z,996.66
2017-06-12T06:43:46.507Z,996.72
2017-06-12T06:44:56.848Z,996.64
2017-06-12T06:46:07.202Z,996.69
2017-06-12T06:47:17.228Z,996.58
2017-06-12T06:48:27.583Z,996.54
2017-06-12T06:49:37.941Z,996.52
2017-06-12T06:50:48.297Z,996.45
2017-06-12T06:51:58.377Z,996.49
2017-06-12T06:53:08.720Z,996.48
2017-06-12T06:54:18.755Z,996.47
2017-06-12T06:55:29.120Z,996.49
2017-06-12T06:56:39.177Z,996.49
2017-06-12T06:57:49.329Z,996.54
2017-06-12T06:58:59.671Z,996.55
2017-06-12T07:00:10.022Z,996.55
2017-06-12T07:01:20.076Z,996.55
2017-06-12T07:02:30.445Z,996.49
2017-06-12T07:03:40.525Z,996.46
2017-06-12T07:04:50.872Z,996.36
2017-06-12T07:06:01.256Z,996.4
2017-06-12T07:07:11.302Z,996.48
2017-06-12T07:08:21.326Z,996.49
2017-06-12T07:09:31.727Z,996.56
2017-06-12T07:10:42.074Z,996.53
2017-06-12T07:11:52.099Z,996.53
2017-06-12T07:13:02.138Z,996.48
2017-06-12T07:14:11.868Z,996.43
2017-06-12T07:15:21.954Z,996.33
2017-06-12T07:16:31.977Z,996.22
2017-06-12T07:17:42.318Z,996.16
2017-06-12T07:18:52.680Z,996.13
2017-06-12T07:20:03.021Z,996.1
2017-06-12T07:21:13.466Z,996.03
2017-06-12T07:22:23.502Z,995.97
2017-06-12T07:23:33.856Z,995.95
2017-06-12T07:24:44.228Z,995.93
2017-06-12T07:25:54.256Z,996.08
2017-06-12T07:27:04.667Z,996.23
2017-06-12T07:28:15.033Z,996.24
2017-06-12T07:29:25.059Z,996.23
2017-06-12T07:30:35.419Z,996.23
2017-06-12T07:31:45.459Z,996.19
2017-06-12T07:32:55.815Z,996.13
2017-06-12T07:34:06.165Z,996.14
2017-06-12T07:35:16.208Z,996.16
2017-06-12T07:36:26.241Z,996.11
2017-06-12T07:37:36.603Z,996.07
2017-06-12T07:38:46.960Z,996.04
2017-06-12T07:39:57.311Z,995.99
2017-06-12T07:41:07.669Z,995.95
2017-06-12T07:42:18.022Z,995.95
2017-06-12T07:43:28.383Z,995.88
2017-06-12T07:44:38.749Z,995.93
2017-06-12T07:45:49.150Z,995.95
2017-06-12T07:46:59.189Z,995.94
2017-06-12T07:48:09.690Z,995.94
2017-06-12T07:49:20.038Z,995.92
2017-06-12T07:50:30.383Z,995.91
2017-06-12T07:51:40.734Z,995.9
2017-06-12T07:52:51.127Z,995.93
2017-06-12T07:54:01.537Z,995.91
2017-06-12T07:55:11.577Z,995.92
2017-06-12T07:56:21.916Z,995.91
2017-06-12T07:57:32.260Z,995.92
2017-06-12T07:58:42.295Z,995.91
2017-06-12T07:59:52.377Z,995.91
2017-06-12T08:01:02.458Z,995.88
2017-06-12T08:02:11.890Z,995.82
2017-06-12T08:03:22.243Z,995.83
2017-06-12T08:04:31.966Z,995.82
2017-06-12T08:05:42.320Z,995.8
2017-06-12T08:06:52.357Z,995.75
2017-06-12T08:08:02.715Z,995.75
2017-06-12T08:09:12.435Z,995.68
2017-06-12T08:10:22.788Z,995.68
2017-06-12T08:11:33.196Z,995.69
2017-06-12T08:12:43.550Z,995.7
2017-06-12T08:13:53.908Z,995.73
2017-06-12T08:15:04.257Z,995.67
2017-06-12T08:16:14.606Z,995.68
2017-06-12T08:17:24.963Z,995.68
2017-06-12T08:18:35.006Z,995.66
2017-06-12T08:19:45.043Z,995.63
2017-06-12T08:20:55.438Z,995.64
2017-06-12T08:22:05.806Z,995.61
2017-06-12T08:23:16.165Z,995.65
2017-06-12T08:24:26.520Z,995.68
2017-06-12T08:25:36.626Z,995.7
2017-06-12T08:26:47.070Z,995.73
2017-06-12T08:27:57.110Z,995.76
2017-06-12T08:29:07.144Z,995.76
2017-06-12T08:30:17.208Z,995.67
2017-06-12T08:31:27.548Z,995.65
2017-06-12T08:32:37.930Z,995.66
2017-06-12T08:33:48.286Z,995.6
2017-06-12T08:34:58.626Z,995.61
2017-06-12T08:36:08.356Z,995.62
2017-06-12T08:37:18.708Z,995.56
2017-06-12T08:38:28.795Z,995.57
2017-06-12T08:39:38.835Z,995.51
2017-06-12T08:40:49.180Z,995.62
2017-06-12T08:41:58.921Z,995.59
2017-06-12T08:43:09.519Z,995.6
2017-06-12T08:44:19.928Z,995.62
2017-06-12T08:45:30.075Z,995.63
2017-06-12T08:46:39.840Z,995.6
2017-06-12T08:47:50.195Z,995.62
2017-06-12T08:49:00.574Z,995.62
2017-06-12T08:50:10.984Z,995.61
2017-06-12T08:51:21.021Z,995.57
2017-06-12T08:52:31.357Z,995.5
2017-06-12T08:53:41.694Z,995.49
2017-06-12T08:54:51.732Z,995.5
2017-06-12T08:56:01.820Z,995.52
2017-06-12T08:57:12.420Z,995.5
2017-06-12T08:58:22.464Z,995.51
2017-06-12T08:59:32.188Z,995.48
2017-06-12T09:00:42.543Z,995.49
2017-06-12T09:01:52.941Z,995.46
2017-06-12T09:03:03.298Z,995.46
2017-06-12T09:04:13.680Z,995.44
2017-06-12T09:05:24.036Z,995.44
2017-06-12T09:06:34.386Z,995.48
2017-06-12T09:07:44.799Z,995.46
2017-06-12T09:08:54.836Z,995.44
2017-06-12T09:10:05.200Z,995.46
2017-06-12T09:11:15.566Z,995.43
2017-06-12T09:12:26.180Z,995.44
2017-06-12T09:13:36.598Z,995.42
2017-06-12T09:14:46.955Z,995.47
2017-06-12T09:15:56.992Z,995.44
2017-06-12T09:17:06.730Z,995.4
2017-06-12T09:18:16.775Z,995.39
2017-06-12T09:19:26.874Z,995.35
2017-06-12T09:20:37.225Z,995.3
2017-06-12T09:21:47.585Z,995.25
2017-06-12T09:22:57.943Z,995.28
2017-06-12T09:24:07.351Z,995.26
2017-06-12T09:25:17.400Z,995.25
2017-06-12T09:26:27.739Z,995.28
2017-06-12T09:27:38.099Z,995.29
2017-06-12T09:28:48.457Z,995.31
2017-06-12T09:29:58.813Z,995.29
2017-06-12T09:31:09.210Z,995.3
2017-06-12T09:32:19.551Z,995.31
2017-06-12T09:33:29.592Z,995.32
2017-06-12T09:34:39.984Z,995.3
2017-06-12T09:35:50.352Z,995.29
2017-06-12T09:37:00.765Z,995.26
2017-06-12T09:38:11.115Z,995.3
2017-06-12T09:39:21.177Z,995.27
2017-06-12T09:40:31.342Z,995.26
2017-06-12T09:41:41.732Z,995.24
2017-06-12T09:42:51.819Z,995.19
2017-06-12T09:44:02.173Z,995.19
2017-06-12T09:45:12.220Z,995.21
2017-06-12T09:46:22.578Z,995.14
2017-06-12T09:47:32.342Z,995.08
2017-06-12T09:48:42.717Z,995.12
2017-06-12T09:49:53.074Z,995.11
2017-06-12T09:51:03.429Z,995.12
2017-06-12T09:52:13.796Z,995.08
2017-06-12T09:53:24.204Z,995.13
2017-06-12T09:54:34.575Z,995.07
2017-06-12T09:55:44.624Z,995.18
2017-06-12T09:56:54.970Z,995.17
2017-06-12T09:58:05.317Z,995.2
2017-06-12T09:59:15.421Z,995.2
2017-06-12T10:00:25.793Z,995.24
2017-06-12T10:01:35.837Z,995.26
2017-06-12T10:02:46.205Z,995.21
2017-06-12T10:03:56.576Z,995.2
2017-06-12T10:05:06.983Z,995.22
2017-06-12T10:06:17.348Z,995.24
2017-06-12T10:07:27.735Z,995.22
2017-06-12T10:08:38.082Z,995.16
2017-06-12T10:09:48.115Z,995.22
2017-06-12T10:10:58.472Z,995.23
2017-06-12T10:12:08.826Z,995.17
2017-06-12T10:13:19.175Z,995.13
2017-06-12T10:14:29.546Z,995.13
2017-06-12T10:15:39.997Z,995.1
2017-06-12T10:16:50.600Z,995.12
2017-06-12T10:18:00.968Z,995.09
2017-06-12T10:19:11.008Z,995.13
2017-06-12T10:20:21.059Z,995.12
2017-06-12T10:21:31.122Z,995.11
2017-06-12T10:22:41.480Z,995.12
2017-06-12T10:23:51.520Z,995.15
2017-06-12T10:25:01.884Z,995.11
2017-06-12T10:26:12.252Z,995.07
2017-06-12T10:27:22.295Z,995.12
2017-06-12T10:28:32.651Z,995.1
2017-06-12T10:29:43.009Z,995.11
2017-06-12T10:30:53.371Z,995.07
2017-06-12T10:32:03.418Z,995.11
2017-06-12T10:33:13.465Z,995.04
2017-06-12T10:34:23.870Z,995.04
2017-06-12T10:35:34.226Z,995.02
2017-06-12T10:36:43.944Z,995.01
2017-06-12T10:37:53.995Z,995.02
2017-06-12T10:39:04.352Z,995.02
2017-06-12T10:40:14.455Z,995
2017-06-12T10:41:24.807Z,995.01
2017-06-12T10:42:34.529Z,995.02
2017-06-12T10:43:44.563Z,995.03
2017-06-12T10:44:54.921Z,994.97
2017-06-12T10:46:05.330Z,994.97
2017-06-12T10:47:15.689Z,994.98
2017-06-12T10:48:26.056Z,994.96
2017-06-12T10:49:36.404Z,994.93
2017-06-12T10:50:46.449Z,994.94
2017-06-12T10:51:56.867Z,994.89
2017-06-12T10:53:07.224Z,994.88
2017-06-12T10:54:17.587Z,994.88
2017-06-12T10:55:27.641Z,994.92
2017-06-12T10:56:38.015Z,994.89
2017-06-12T10:57:48.120Z,994.83
2017-06-12T10:58:58.479Z,994.79
2017-06-12T11:00:08.526Z,994.8
2017-06-12T11:01:18.906Z,994.8
2017-06-12T11:02:29.266Z,994.78
2017-06-12T11:03:39.670Z,994.74
2017-06-12T11:04:50.032Z,994.75
2017-06-12T11:06:00.069Z,994.73
2017-06-12T11:07:10.416Z,994.69
2017-06-12T11:08:20.487Z,994.68
2017-06-12T11:09:30.269Z,994.64
2017-06-12T11:10:40.632Z,994.66
2017-06-12T11:11:50.703Z,994.61
2017-06-12T11:13:01.058Z,994.57
2017-06-12T11:14:11.425Z,994.53
2017-06-12T11:15:21.824Z,994.53
2017-06-12T11:16:32.173Z,994.52
2017-06-12T11:17:42.534Z,994.53
2017-06-12T11:18:52.580Z,994.51
2017-06-12T11:20:02.971Z,994.52
2017-06-12T11:21:13.566Z,994.45
2017-06-12T11:22:23.936Z,994.5
2017-06-12T11:23:33.991Z,994.49
2017-06-12T11:24:44.357Z,994.43
2017-06-12T11:25:54.708Z,994.35
2017-06-12T11:27:05.131Z,994.36
2017-06-12T11:28:14.861Z,994.31
2017-06-12T11:29:25.209Z,994.37
2017-06-12T11:30:35.609Z,994.4
2017-06-12T11:31:45.970Z,994.3
2017-06-12T11:32:56.029Z,994.32
2017-06-12T11:34:06.412Z,994.34
2017-06-12T11:35:16.769Z,994.28
2017-06-12T11:36:27.140Z,994.19
2017-06-12T11:37:37.496Z,994.35
2017-06-12T11:38:47.847Z,994.33
2017-06-12T11:39:57.897Z,994.29
2017-06-12T11:41:08.266Z,994.28
2017-06-12T11:42:18.623Z,994.27
2017-06-12T11:43:28.971Z,994.25
2017-06-12T11:44:39.332Z,994.28
2017-06-12T11:45:49.694Z,994.25
2017-06-12T11:47:00.075Z,994.31
2017-06-12T11:48:10.431Z,994.26
2017-06-12T11:49:20.481Z,994.31
2017-06-12T11:50:30.580Z,994.23
2017-06-12T11:51:40.648Z,994.28
2017-06-12T11:52:51.015Z,994.24
2017-06-12T11:54:01.392Z,994.28
2017-06-12T11:55:11.768Z,994.23
2017-06-12T11:56:21.878Z,994.25
2017-06-12T11:57:31.943Z,994.16
2017-06-12T11:58:42.302Z,994.18
2017-06-12T11:59:52.665Z,994.18
2017-06-12T12:01:02.708Z,994.16
2017-06-12T12:02:13.125Z,994.22
2017-06-12T12:03:23.484Z,994.17
2017-06-12T12:04:33.829Z,994.09
2017-06-12T12:05:44.183Z,994.09
2017-06-12T12:06:54.284Z,994.17
2017-06-12T12:08:04.693Z,994.2
2017-06-12T12:09:15.045Z,994.2
2017-06-12T12:10:24.782Z,994.12
2017-06-12T12:11:35.166Z,994.22
2017-06-12T12:12:45.292Z,994.23
2017-06-12T12:13:55.326Z,994.23
2017-06-12T12:15:05.722Z,994.18
2017-06-12T12:16:16.078Z,994.17
2017-06-12T12:17:26.441Z,994.2
2017-06-12T12:18:36.800Z,994.18
2017-06-12T12:19:46.884Z,994.15
2017-06-12T12:20:56.612Z,994.08
2017-06-12T12:22:06.978Z,994.2
2017-06-12T12:23:17.346Z,994.23
2017-06-12T12:24:27.718Z,994.2
2017-06-12T12:25:37.824Z,994.3
2017-06-12T12:26:47.890Z,994.21
2017-06-12T12:27:58.248Z,994.21
2017-06-12T12:29:08.609Z,994.24
2017-06-12T12:30:18.959Z,994.19
2017-06-12T12:31:29.374Z,994.1
2017-06-12T12:32:39.725Z,994.09
2017-06-12T12:33:50.072Z,994.29
2017-06-12T12:35:00.106Z,994.16
2017-06-12T12:36:10.180Z,994.12
2017-06-12T12:37:19.973Z,994.09
2017-06-12T12:38:30.323Z,994.18
2017-06-12T12:39:40.686Z,994.08
2017-06-12T12:40:51.056Z,994.16
2017-06-12T12:42:01.100Z,994.07
2017-06-12T12:43:11.487Z,994.12
2017-06-12T12:44:21.850Z,994.08
2017-06-12T12:45:31.905Z,994.19
2017-06-12T12:46:42.277Z,994.17
2017-06-12T12:47:52.333Z,994.16
2017-06-12T12:49:02.432Z,994.24
2017-06-12T12:50:12.492Z,994.18
2017-06-12T12:51:22.838Z,994.29
2017-06-12T12:52:32.894Z,994.18
2017-06-12T12:53:43.263Z,994.21
2017-06-12T12:54:53.417Z,994.25
2017-06-12T12:56:03.788Z,994.16
2017-06-12T12:57:14.145Z,994.22
2017-06-12T12:58:24.508Z,994.2
2017-06-12T12:59:34.870Z,994.16
2017-06-12T13:00:45.275Z,994.23
2017-06-12T13:01:55.669Z,994.25
2017-06-12T13:03:06.027Z,994.23
2017-06-12T13:04:16.417Z,994.18
2017-06-12T13:05:26.791Z,994.34
2017-06-12T13:06:36.911Z,994.32
2017-06-12T13:07:47.281Z,994.27
2017-06-12T13:08:57.667Z,994.25
2017-06-12T13:10:07.729Z,994.3
2017-06-12T13:11:17.771Z,994.37
2017-06-12T13:12:28.194Z,994.35
2017-06-12T13:13:38.259Z,994.37
2017-06-12T13:14:48.629Z,994.3
2017-06-12T13:15:58.976Z,994.32
2017-06-12T13:17:09.023Z,994.36
2017-06-12T13:18:19.499Z,994.28
2017-06-12T13:19:29.224Z,994.32
2017-06-12T13:20:39.271Z,994.36
2017-06-12T13:21:49.324Z,994.37
2017-06-12T13:22:59.070Z,994.43
2017-06-12T13:24:08.852Z,994.39
2017-06-12T13:25:18.578Z,994.42
2017-06-12T13:26:28.941Z,994.44
2017-06-12T13:27:38.701Z,994.38
2017-06-12T13:28:49.060Z,994.47
2017-06-12T13:29:59.469Z,994.43
2017-06-12T13:31:09.519Z,994.45
2017-06-12T13:32:19.890Z,994.31
2017-06-12T13:33:30.245Z,994.39
2017-06-12T13:34:40.285Z,994.37
2017-06-12T13:35:50.406Z,994.4
2017-06-12T13:37:00.484Z,994.36
2017-06-12T13:38:10.843Z,994.36
2017-06-12T13:39:21.186Z,994.26
2017-06-12T13:40:31.243Z,994.46
2017-06-12T13:41:41.648Z,994.35
2017-06-12T13:42:52.007Z,994.41
2017-06-12T13:44:02.370Z,994.3
2017-06-12T13:45:12.410Z,994.27
2017-06-12T13:46:22.772Z,994.31
2017-06-12T13:47:33.179Z,994.32
2017-06-12T13:48:43.522Z,994.3
2017-06-12T13:49:53.573Z,994.24
2017-06-12T13:51:03.617Z,994.38
2017-06-12T13:52:13.669Z,994.45
2017-06-12T13:53:23.774Z,994.37
2017-06-12T13:54:34.143Z,994.32
2017-06-12T13:55:44.201Z,994.25
2017-06-12T13:56:54.251Z,994.26
2017-06-12T13:58:04.313Z,994.34
2017-06-12T13:59:14.422Z,994.25
2017-06-12T14:00:24.478Z,994.29
2017-06-12T14:01:34.510Z,994.26
2017-06-12T14:02:44.890Z,994.31
2017-06-12T14:03:55.249Z,994.36
2017-06-12T14:05:05.676Z,994.47
2017-06-12T14:06:15.736Z,994.48
2017-06-12T14:07:26.082Z,994.36
2017-06-12T14:08:36.463Z,994.37
2017-06-12T14:09:46.833Z,994.31
2017-06-12T14:10:57.242Z,994.31
2017-06-12T14:12:07.613Z,994.36
2017-06-12T14:13:18.007Z,994.39
2017-06-12T14:14:28.410Z,994.32
2017-06-12T14:15:38.749Z,994.31
2017-06-12T14:16:48.843Z,994.28
2017-06-12T14:17:59.225Z,994.3
2017-06-12T14:19:09.597Z,994.31
2017-06-12T14:20:19.961Z,994.29
2017-06-12T14:21:30.316Z,994.28
2017-06-12T14:22:40.419Z,994.35
2017-06-12T14:23:50.476Z,994.34
2017-06-12T14:25:00.828Z,994.33
2017-06-12T14:26:11.190Z,994.36
2017-06-12T14:27:21.544Z,994.37
2017-06-12T14:28:31.958Z,994.36
2017-06-12T14:29:42.322Z,994.27
2017-06-12T14:30:52.728Z,994.26
2017-06-12T14:32:03.084Z,994.31
2017-06-12T14:33:13.452Z,994.34
2017-06-12T14:34:23.870Z,994.32
2017-06-12T14:35:34.245Z,994.32
2017-06-12T14:36:44.612Z,994.3
2017-06-12T14:37:54.666Z,994.27
2017-06-12T14:39:05.033Z,994.21
2017-06-12T14:40:15.384Z,994.24
2017-06-12T14:41:25.739Z,994.21
2017-06-12T14:42:36.109Z,994.2
2017-06-12T14:43:46.506Z,994.21
2017-06-12T14:44:56.903Z,994.2
2017-06-12T14:46:07.039Z,994.19
2017-06-12T14:47:17.400Z,994.21
2017-06-12T14:48:27.455Z,994.19
2017-06-12T14:49:37.202Z,994.19
2017-06-12T14:50:47.558Z,994.11
2017-06-12T14:51:57.984Z,994.16
2017-06-12T14:53:08.355Z,994.13
2017-06-12T14:54:18.725Z,994.02
2017-06-12T14:55:28.781Z,994.03
2017-06-12T14:56:39.122Z,994.03
2017-06-12T14:57:49.515Z,994.03
2017-06-12T14:58:59.897Z,994
2017-06-12T15:00:10.458Z,994.03
2017-06-12T15:01:20.831Z,994.03
2017-06-12T15:02:31.216Z,994.02
2017-06-12T15:03:41.612Z,994.05
2017-06-12T15:04:51.689Z,994.06
2017-06-12T15:06:02.069Z,994.12
2017-06-12T15:07:12.449Z,994.06
2017-06-12T15:08:22.201Z,994.01
2017-06-12T15:09:32.646Z,993.96